createdAt,value
2018-09-19T00:01:38.744Z,19.87
2018-09-19T00:04:06.845Z,19.94
2018-09-19T00:06:34.570Z,19.92
2018-09-19T00:09:02.407Z,19.78
2018-09-19T00:11:30.313Z,19.73
2018-09-19T00:13:58.089Z,19.78
2018-09-19T00:16:25.896Z,19.75
2018-09-19T00:18:53.783Z,19.54
2018-09-19T00:21:21.532Z,19.62
2018-09-19T00:23:49.268Z,19.57
2018-09-19T00:26:17.084Z,19.61
2018-09-19T00:28:44.786Z,19.58
2018-09-19T00:31:12.594Z,19.70
2018-09-19T00:33:40.352Z,19.83
2018-09-19T00:36:08.134Z,19.77
2018-09-19T00:38:35.938Z,19.61
2018-09-19T00:41:03.681Z,19.35
2018-09-19T00:43:31.408Z,19.37
2018-09-19T00:45:59.192Z,19.42
2018-09-19T00:48:26.940Z,19.50
2018-09-19T00:50:54.724Z,19.52
2018-09-19T00:53:22.467Z,19.50
2018-09-19T00:55:50.240Z,19.70
2018-09-19T00:58:18.260Z,19.65
2018-09-19T01:00:46.115Z,19.46
2018-09-19T01:03:14.050Z,19.59
2018-09-19T01:05:41.762Z,19.68
2018-09-19T01:08:09.607Z,19.80
2018-09-19T01:10:37.754Z,19.91
2018-09-19T01:13:05.540Z,19.84
2018-09-19T01:15:33.370Z,19.90
2018-09-19T01:18:01.116Z,19.91
2018-09-19T01:20:28.951Z,19.95
2018-09-19T01:22:56.712Z,20.02
2018-09-19T01:25:24.448Z,19.99
2018-09-19T01:27:52.244Z,19.96
2018-09-19T01:30:19.988Z,20.04
2018-09-19T01:32:48.073Z,19.81
2018-09-19T01:35:15.832Z,19.89
2018-09-19T01:37:43.609Z,19.98
2018-09-19T01:40:11.736Z,20.02
2018-09-19T01:42:39.423Z,19.97
2018-09-19T01:45:07.314Z,19.94
2018-09-19T01:47:35.139Z,19.92
2018-09-19T01:50:02.950Z,19.87
2018-09-19T01:52:30.734Z,19.83
2018-09-19T01:54:58.481Z,19.82
2018-09-19T01:57:26.236Z,19.72
2018-09-19T01:59:54.096Z,19.69
2018-09-19T02:02:21.849Z,19.64
2018-09-19T02:04:49.600Z,19.57
2018-09-19T02:07:17.389Z,19.38
2018-09-19T02:09:45.176Z,19.36
2018-09-19T02:12:12.922Z,19.31
2018-09-19T02:14:40.687Z,19.28
2018-09-19T02:17:08.848Z,19.26
2018-09-19T02:19:36.625Z,19.21
2018-09-19T02:22:04.526Z,19.21
2018-09-19T02:24:32.311Z,19.11
2018-09-19T02:27:00.171Z,19.12
2018-09-19T02:29:27.971Z,19.10
2018-09-19T02:31:55.720Z,19.07
2018-09-19T02:34:23.500Z,19.10
2018-09-19T02:36:51.267Z,19.05
2018-09-19T02:39:20.092Z,19.00
2018-09-19T02:41:47.923Z,18.93
2018-09-19T02:44:15.685Z,18.82
2018-09-19T02:46:43.761Z,18.68
2018-09-19T02:49:11.558Z,18.59
2018-09-19T02:51:39.350Z,18.56
2018-09-19T02:54:07.384Z,18.48
2018-09-19T02:56:35.172Z,18.49
2018-09-19T02:59:03.086Z,18.49
2018-09-19T03:01:31.541Z,18.41
2018-09-19T03:03:59.356Z,18.26
2018-09-19T03:06:27.200Z,18.22
2018-09-19T03:08:55.027Z,18.17
2018-09-19T03:11:22.816Z,18.20
2018-09-19T03:13:50.580Z,18.10
2018-09-19T03:16:18.362Z,18.14
2018-09-19T03:18:46.165Z,18.21
2018-09-19T03:21:13.924Z,18.18
2018-09-19T03:23:41.651Z,18.16
2018-09-19T03:26:09.442Z,18.11
2018-09-19T03:28:37.216Z,18.11
2018-09-19T03:31:05.161Z,18.07
2018-09-19T03:33:32.957Z,18.04
2018-09-19T03:36:00.686Z,18.04
2018-09-19T03:38:28.481Z,17.97
2018-09-19T03:40:56.272Z,17.98
2018-09-19T03:43:24.036Z,17.74
2018-09-19T03:45:52.224Z,17.49
2018-09-19T03:48:19.972Z,17.45
2018-09-19T03:50:48.044Z,17.20
2018-09-19T03:53:15.888Z,17.29
2018-09-19T03:55:43.630Z,17.35
2018-09-19T03:58:11.422Z,17.37
2018-09-19T04:00:39.245Z,17.44
2018-09-19T04:03:07.023Z,17.48
2018-09-19T04:05:34.871Z,17.47
2018-09-19T04:08:02.745Z,17.35
2018-09-19T04:10:30.592Z,17.31
2018-09-19T04:12:58.364Z,17.26
2018-09-19T04:15:26.245Z,17.22
2018-09-19T04:17:54.144Z,17.26
2018-09-19T04:20:21.832Z,17.29
2018-09-19T04:22:49.941Z,17.23
2018-09-19T04:25:17.731Z,17.17
2018-09-19T04:27:45.473Z,17.20
2018-09-19T04:30:13.293Z,17.18
2018-09-19T04:32:41.051Z,17.14
2018-09-19T04:35:08.865Z,17.10
2018-09-19T04:37:36.660Z,17.08
2018-09-19T04:40:04.528Z,16.97
2018-09-19T04:42:32.324Z,16.95
2018-09-19T04:45:00.148Z,16.93
2018-09-19T04:47:27.796Z,16.90
2018-09-19T04:49:55.762Z,16.80
2018-09-19T04:52:23.933Z,16.78
2018-09-19T04:54:51.705Z,16.73
2018-09-19T04:57:19.531Z,16.75
2018-09-19T04:59:47.328Z,16.67
2018-09-19T05:02:15.150Z,16.55
2018-09-19T05:04:42.940Z,16.53
2018-09-19T05:07:10.842Z,16.55
2018-09-19T05:09:38.663Z,16.44
2018-09-19T05:12:06.504Z,16.41
2018-09-19T05:14:34.326Z,16.39
2018-09-19T05:17:02.100Z,16.39
2018-09-19T05:19:29.828Z,16.42
2018-09-19T05:21:57.596Z,16.39
2018-09-19T05:24:25.315Z,16.43
2018-09-19T05:26:53.144Z,16.44
2018-09-19T05:29:20.947Z,16.45
2018-09-19T05:31:49.002Z,16.48
2018-09-19T05:34:17.049Z,16.51
2018-09-19T05:36:44.873Z,16.51
2018-09-19T05:39:12.680Z,16.48
2018-09-19T05:41:40.481Z,16.53
2018-09-19T05:44:08.268Z,16.56
2018-09-19T05:46:36.227Z,16.62
2018-09-19T05:49:03.992Z,16.71
2018-09-19T05:51:31.719Z,16.76
2018-09-19T05:53:59.636Z,16.81
2018-09-19T05:56:27.451Z,16.83
2018-09-19T05:58:55.180Z,16.91
2018-09-19T06:01:23.560Z,17.04
2018-09-19T06:03:51.396Z,17.19
2018-09-19T06:06:19.108Z,17.32
2018-09-19T06:08:46.976Z,17.37
2018-09-19T06:11:14.824Z,17.39
2018-09-19T06:13:42.642Z,17.49
2018-09-19T06:16:10.439Z,17.64
2018-09-19T06:18:38.155Z,17.83
2018-09-19T06:21:06.012Z,18.00
2018-09-19T06:23:34.580Z,18.39
2018-09-19T06:26:02.262Z,19.03
2018-09-19T06:28:30.113Z,19.60
2018-09-19T06:30:57.962Z,20.50
2018-09-19T06:33:25.717Z,20.99
2018-09-19T06:35:53.529Z,21.14
2018-09-19T06:38:21.394Z,22.05
2018-09-19T06:40:49.291Z,23.37
2018-09-19T06:43:17.423Z,24.80
2018-09-19T06:45:45.551Z,25.96
2018-09-19T06:48:14.022Z,27.04
2018-09-19T06:50:41.886Z,27.72
2018-09-19T06:53:09.705Z,27.56
2018-09-19T06:55:37.577Z,27.30
2018-09-19T06:58:05.980Z,28.34
2018-09-19T07:00:33.760Z,29.27
2018-09-19T07:03:01.515Z,30.43
2018-09-19T07:05:29.320Z,29.53
2018-09-19T07:07:57.112Z,29.21
2018-09-19T07:10:24.939Z,30.90
2018-09-19T07:12:52.849Z,31.00
2018-09-19T07:15:20.724Z,29.55
2018-09-19T07:17:48.496Z,29.77
2018-09-19T07:20:16.439Z,30.81
2018-09-19T07:22:44.213Z,32.51
2018-09-19T07:25:12.129Z,33.47
2018-09-19T07:27:40.039Z,33.45
2018-09-19T07:30:07.906Z,34.64
2018-09-19T07:32:35.744Z,35.71
2018-09-19T07:35:03.532Z,36.10
2018-09-19T07:37:31.298Z,35.63
2018-09-19T07:39:59.576Z,35.84
2018-09-19T07:42:27.348Z,35.72
2018-09-19T07:44:55.141Z,36.22
2018-09-19T07:47:23.588Z,35.58
2018-09-19T07:49:51.600Z,36.26
2018-09-19T07:52:19.400Z,35.35
2018-09-19T07:54:47.861Z,33.90
2018-09-19T07:57:15.554Z,36.08
2018-09-19T07:59:43.296Z,36.79
2018-09-19T08:02:11.297Z,37.45
2018-09-19T08:04:39.008Z,38.14
2018-09-19T08:07:06.833Z,38.33
2018-09-19T08:09:34.821Z,38.35
2018-09-19T08:12:02.763Z,37.81
2018-09-19T08:14:30.540Z,38.27
2018-09-19T08:16:58.384Z,36.86
2018-09-19T08:19:26.945Z,37.64
2018-09-19T08:21:54.772Z,37.11
2018-09-19T08:24:22.497Z,38.79
2018-09-19T08:26:50.330Z,38.58
2018-09-19T08:29:18.116Z,38.72
2018-09-19T08:31:45.865Z,40.10
2018-09-19T08:34:13.668Z,40.12
2018-09-19T08:36:41.480Z,40.54
2018-09-19T08:39:10.196Z,39.30
2018-09-19T08:41:38.008Z,38.12
2018-09-19T08:44:06.033Z,37.85
2018-09-19T08:46:33.995Z,37.81
2018-09-19T08:49:02.309Z,38.72
2018-09-19T08:51:30.073Z,39.20
2018-09-19T08:53:57.896Z,38.55
2018-09-19T08:56:25.648Z,38.82
2018-09-19T08:58:53.405Z,38.59
2018-09-19T09:01:21.247Z,37.81
2018-09-19T09:03:48.984Z,38.80
2018-09-19T09:06:16.913Z,38.21
2018-09-19T09:08:44.772Z,36.68
2018-09-19T09:11:12.563Z,36.45
2018-09-19T09:13:40.356Z,37.04
2018-09-19T09:16:08.142Z,37.08
2018-09-19T09:18:35.912Z,36.28
2018-09-19T09:21:03.647Z,36.16
2018-09-19T09:23:31.525Z,36.64
2018-09-19T09:25:59.445Z,35.62
2018-09-19T09:28:27.550Z,36.49
2018-09-19T09:30:55.345Z,36.50
2018-09-19T09:33:23.080Z,38.48
2018-09-19T09:35:50.884Z,38.94
2018-09-19T09:38:18.619Z,39.21
2018-09-19T09:40:46.404Z,37.63
2018-09-19T09:43:14.340Z,40.08
2018-09-19T09:45:42.189Z,41.29
2018-09-19T09:48:09.976Z,41.48
2018-09-19T09:50:38.009Z,41.02
2018-09-19T09:53:05.856Z,41.27
2018-09-19T09:55:33.583Z,41.15
2018-09-19T09:58:01.300Z,40.75
2018-09-19T10:00:34.769Z,40.49
2018-09-19T10:03:02.803Z,41.27
2018-09-19T10:05:30.539Z,40.30
2018-09-19T10:07:58.289Z,39.49
2018-09-19T10:10:26.092Z,38.86
2018-09-19T10:12:53.875Z,39.41
2018-09-19T10:15:21.627Z,40.05
2018-09-19T10:17:49.696Z,40.55
2018-09-19T10:20:17.521Z,39.36
2018-09-19T10:22:45.304Z,38.32
2018-09-19T10:25:13.040Z,38.92
2018-09-19T10:27:40.951Z,37.68
2018-09-19T10:30:08.833Z,38.09
2018-09-19T10:32:36.637Z,37.80
2018-09-19T10:35:04.454Z,38.42
2018-09-19T10:37:32.485Z,37.83
2018-09-19T10:40:00.465Z,36.60
2018-09-19T10:42:28.262Z,36.09
2018-09-19T10:44:55.988Z,36.15
2018-09-19T10:47:23.821Z,36.83
2018-09-19T10:49:51.548Z,36.68
2018-09-19T10:52:19.352Z,36.49
2018-09-19T10:54:47.060Z,36.46
2018-09-19T10:57:14.800Z,36.53
2018-09-19T10:59:42.524Z,36.10
2018-09-19T11:02:10.407Z,36.23
2018-09-19T11:04:38.213Z,37.10
2018-09-19T11:07:05.991Z,37.34
2018-09-19T11:09:33.725Z,37.13
2018-09-19T11:12:01.489Z,36.53
2018-09-19T11:14:29.400Z,35.75
2018-09-19T11:16:57.227Z,36.07
2018-09-19T11:19:25.000Z,37.24
2018-09-19T11:21:52.788Z,37.69
2018-09-19T11:24:20.616Z,36.96
2018-09-19T11:26:48.712Z,35.82
2018-09-19T11:29:16.504Z,36.13
2018-09-19T11:31:44.235Z,36.40
2018-09-19T11:34:12.084Z,36.34
2018-09-19T11:36:39.800Z,34.84
2018-09-19T11:39:11.069Z,35.43
2018-09-19T11:41:38.972Z,35.66
2018-09-19T11:44:07.384Z,35.83
2018-09-19T11:46:35.092Z,33.75
2018-09-19T11:49:02.960Z,34.41
2018-09-19T11:51:30.981Z,34.98
2018-09-19T11:53:58.767Z,35.59
2018-09-19T11:56:26.504Z,36.24
2018-09-19T11:58:54.664Z,36.90
2018-09-19T12:01:22.765Z,37.47
2018-09-19T12:03:50.581Z,37.94
2018-09-19T12:06:18.456Z,37.48
2018-09-19T12:08:46.208Z,36.08
2018-09-19T12:11:13.913Z,35.57
2018-09-19T12:13:41.740Z,36.27
2018-09-19T12:16:09.696Z,36.28
2018-09-19T12:18:37.420Z,36.30
2018-09-19T12:21:05.224Z,35.95
2018-09-19T12:23:33.053Z,36.46
2018-09-19T12:26:01.221Z,36.85
2018-09-19T12:28:28.988Z,37.26
2018-09-19T12:30:56.805Z,36.60
2018-09-19T12:33:25.183Z,36.63
2018-09-19T12:35:52.948Z,37.31
2018-09-19T12:38:20.785Z,36.63
2018-09-19T12:40:48.761Z,36.26
2018-09-19T12:43:16.488Z,36.39
2018-09-19T12:45:44.242Z,36.10
2018-09-19T12:48:12.090Z,35.33
2018-09-19T12:50:43.922Z,35.59
2018-09-19T12:53:11.789Z,35.44
2018-09-19T12:55:39.605Z,35.71
2018-09-19T12:58:07.432Z,35.74
2018-09-19T13:00:35.196Z,35.32
2018-09-19T13:03:03.048Z,34.74
2018-09-19T13:05:31.835Z,34.10
2018-09-19T13:07:59.881Z,34.20
2018-09-19T13:10:27.610Z,35.15
2018-09-19T13:12:55.336Z,35.60
2018-09-19T13:15:23.136Z,35.82
2018-09-19T13:17:51.331Z,35.72
2018-09-19T13:20:19.109Z,36.39
2018-09-19T13:22:46.851Z,36.17
2018-09-19T13:25:14.661Z,35.34
2018-09-19T13:27:42.384Z,35.09
2018-09-19T13:30:10.145Z,35.40
2018-09-19T13:32:37.977Z,36.11
2018-09-19T13:35:05.881Z,35.62
2018-09-19T13:37:33.600Z,35.11
2018-09-19T13:40:01.546Z,35.21
2018-09-19T13:42:29.317Z,35.44
2018-09-19T13:44:57.048Z,34.51
2018-09-19T13:47:24.806Z,35.03
2018-09-19T13:49:56.781Z,35.07
2018-09-19T13:52:24.904Z,36.05
2018-09-19T13:54:52.710Z,36.32
2018-09-19T13:57:20.434Z,36.31
2018-09-19T13:59:48.292Z,35.51
2018-09-19T14:02:16.414Z,35.72
2018-09-19T14:04:44.177Z,35.70
2018-09-19T14:07:12.068Z,35.95
2018-09-19T14:09:40.319Z,35.79
2018-09-19T14:12:08.100Z,36.08
2018-09-19T14:14:35.804Z,35.72
2018-09-19T14:17:03.628Z,35.55
2018-09-19T14:19:31.412Z,35.09
2018-09-19T14:21:59.222Z,34.70
2018-09-19T14:24:27.002Z,34.73
2018-09-19T14:26:54.781Z,34.16
2018-09-19T14:29:22.604Z,34.06
2018-09-19T14:31:50.576Z,33.47
2018-09-19T14:34:18.352Z,33.51
2018-09-19T14:36:46.140Z,33.19
2018-09-19T14:39:13.920Z,32.96
2018-09-19T14:41:41.748Z,32.74
2018-09-19T14:44:09.488Z,32.10
2018-09-19T14:46:38.020Z,31.82
2018-09-19T14:49:06.529Z,31.85
2018-09-19T14:51:34.469Z,31.56
2018-09-19T14:54:02.559Z,31.65
2018-09-19T14:56:30.460Z,31.59
2018-09-19T14:58:58.172Z,31.32
2018-09-19T15:01:26.012Z,31.42
2018-09-19T15:03:53.753Z,31.25
2018-09-19T15:06:21.528Z,30.61
2018-09-19T15:08:49.264Z,30.58
2018-09-19T15:11:16.977Z,30.60
2018-09-19T15:13:44.728Z,30.65
2018-09-19T15:16:12.514Z,30.59
2018-09-19T15:18:40.284Z,30.30
2018-09-19T15:21:08.049Z,29.99
2018-09-19T15:23:35.906Z,30.00
2018-09-19T15:26:03.640Z,29.96
2018-09-19T15:28:31.350Z,30.05
2018-09-19T15:30:59.068Z,30.20
2018-09-19T15:33:26.820Z,30.27
2018-09-19T15:35:54.764Z,30.25
2018-09-19T15:38:22.482Z,30.10
2018-09-19T15:40:50.204Z,29.89
2018-09-19T15:43:18.005Z,30.04
2018-09-19T15:45:45.721Z,30.03
2018-09-19T15:48:13.419Z,29.86
2018-09-19T15:50:41.297Z,29.86
2018-09-19T15:53:09.032Z,29.99
2018-09-19T15:55:36.817Z,30.04
2018-09-19T15:58:04.603Z,30.09
2018-09-19T16:00:32.458Z,30.05
2018-09-19T16:03:00.249Z,29.98
2018-09-19T16:05:27.999Z,29.70
2018-09-19T16:07:55.767Z,29.63
2018-09-19T16:10:23.634Z,29.65
2018-09-19T16:12:52.388Z,29.55
2018-09-19T16:15:20.153Z,29.44
2018-09-19T16:17:47.900Z,29.41
2018-09-19T16:20:15.692Z,29.25
2018-09-19T16:22:43.428Z,29.36
2018-09-19T16:25:11.239Z,29.24
2018-09-19T16:27:39.036Z,28.98
2018-09-19T16:30:06.928Z,28.99
2018-09-19T16:32:34.649Z,28.79
2018-09-19T16:35:02.485Z,28.78
2018-09-19T16:37:30.193Z,28.79
2018-09-19T16:39:57.988Z,28.66
2018-09-19T16:42:25.797Z,28.60
2018-09-19T16:44:53.545Z,28.50
2018-09-19T16:47:21.248Z,28.48
2018-09-19T16:49:49.096Z,28.44
2018-09-19T16:52:16.844Z,28.26
2018-09-19T16:54:44.609Z,28.16
2018-09-19T16:57:12.481Z,28.03
2018-09-19T16:59:40.455Z,27.92
2018-09-19T17:02:08.257Z,27.81
2018-09-19T17:04:36.013Z,27.64
2018-09-19T17:07:04.204Z,27.47
2018-09-19T17:09:31.948Z,27.40
2018-09-19T17:11:59.723Z,27.25
2018-09-19T17:14:27.459Z,27.06
2018-09-19T17:16:55.216Z,26.83
2018-09-19T17:19:22.977Z,26.67
2018-09-19T17:21:50.711Z,26.56
2018-09-19T17:24:18.420Z,26.45
2018-09-19T17:26:46.164Z,26.38
2018-09-19T17:29:13.931Z,26.27
2018-09-19T17:31:41.732Z,26.14
2018-09-19T17:34:09.800Z,26.04
2018-09-19T17:36:37.641Z,25.94
2018-09-19T17:39:08.961Z,25.82
2018-09-19T17:41:36.741Z,25.71
2018-09-19T17:44:04.501Z,25.54
2018-09-19T17:46:32.308Z,25.47
2018-09-19T17:49:00.108Z,25.25
2018-09-19T17:51:28.152Z,25.06
2018-09-19T17:53:55.909Z,24.94
2018-09-19T17:56:23.664Z,24.85
2018-09-19T17:58:51.460Z,24.67
2018-09-19T18:01:20.124Z,24.49
2018-09-19T18:03:48.064Z,24.29
2018-09-19T18:06:15.849Z,24.21
2018-09-19T18:08:43.532Z,24.10
2018-09-19T18:11:11.308Z,24.01
2018-09-19T18:13:39.301Z,23.89
2018-09-19T18:16:07.186Z,23.79
2018-09-19T18:18:34.917Z,23.75
2018-09-19T18:21:02.691Z,23.63
2018-09-19T18:23:30.524Z,23.59
2018-09-19T18:25:58.305Z,23.51
2018-09-19T18:28:26.089Z,23.42
2018-09-19T18:30:53.865Z,23.36
2018-09-19T18:33:21.749Z,23.32
2018-09-19T18:35:49.508Z,23.27
2018-09-19T18:38:17.329Z,23.33
2018-09-19T18:40:45.095Z,23.31
2018-09-19T18:43:12.848Z,23.29
2018-09-19T18:45:40.632Z,23.38
2018-09-19T18:48:08.316Z,23.31
2018-09-19T18:50:36.148Z,23.28
2018-09-19T18:53:03.960Z,23.25
2018-09-19T18:55:31.700Z,23.23
2018-09-19T18:57:59.485Z,23.00
2018-09-19T19:00:27.508Z,23.03
2018-09-19T19:02:55.248Z,22.91
2018-09-19T19:05:23.041Z,22.53
2018-09-19T19:07:50.787Z,22.60
2018-09-19T19:10:18.516Z,22.56
2018-09-19T19:12:46.285Z,22.59
2018-09-19T19:15:14.049Z,22.66
2018-09-19T19:17:41.821Z,22.67
2018-09-19T19:20:09.544Z,22.73
2018-09-19T19:22:37.302Z,22.70
2018-09-19T19:25:05.460Z,22.63
2018-09-19T19:27:33.580Z,22.50
2018-09-19T19:30:01.412Z,22.26
2018-09-19T19:32:29.198Z,22.24
2018-09-19T19:34:57.133Z,22.20
2018-09-19T19:37:24.864Z,22.10
2018-09-19T19:39:52.706Z,22.16
2018-09-19T19:42:20.424Z,22.14
2018-09-19T19:44:48.173Z,22.15
2018-09-19T19:47:16.000Z,22.09
2018-09-19T19:49:43.740Z,22.01
2018-09-19T19:52:11.533Z,21.94
2018-09-19T19:54:39.297Z,21.86
2018-09-19T19:57:07.136Z,21.79
2018-09-19T19:59:35.332Z,21.76
2018-09-19T20:02:03.168Z,21.64
2018-09-19T20:04:31.408Z,21.57
2018-09-19T20:06:59.289Z,21.58
2018-09-19T20:09:27.012Z,21.52
2018-09-19T20:11:54.745Z,21.32
2018-09-19T20:14:22.526Z,21.31
2018-09-19T20:16:50.504Z,21.09
2018-09-19T20:19:18.277Z,21.07
2018-09-19T20:21:46.033Z,21.09
2018-09-19T20:24:13.825Z,21.14
2018-09-19T20:26:41.616Z,21.16
2018-09-19T20:29:09.596Z,21.14
2018-09-19T20:31:37.342Z,21.03
2018-09-19T20:34:05.282Z,21.01
2018-09-19T20:36:33.018Z,20.94
2018-09-19T20:39:00.783Z,20.85
2018-09-19T20:41:28.548Z,20.86
2018-09-19T20:43:56.321Z,20.86
2018-09-19T20:46:24.113Z,20.83
2018-09-19T20:48:51.848Z,20.80
2018-09-19T20:51:19.636Z,20.70
2018-09-19T20:53:47.384Z,20.68
2018-09-19T20:56:15.154Z,20.63
2018-09-19T20:58:42.984Z,20.57
2018-09-19T21:01:10.724Z,20.52
2018-09-19T21:03:38.887Z,20.52
2018-09-19T21:06:06.764Z,20.46
2018-09-19T21:08:34.472Z,20.44
2018-09-19T21:11:02.216Z,20.38
2018-09-19T21:13:29.971Z,20.43
2018-09-19T21:15:57.758Z,20.30
2018-09-19T21:18:25.500Z,20.34
2018-09-19T21:20:53.248Z,20.27
2018-09-19T21:23:20.989Z,20.26
2018-09-19T21:25:48.796Z,20.21
2018-09-19T21:28:16.617Z,20.08
2018-09-19T21:30:44.338Z,20.01
2018-09-19T21:33:12.073Z,20.00
2018-09-19T21:35:40.392Z,19.98
2018-09-19T21:38:08.144Z,19.88
2018-09-19T21:40:35.922Z,19.89
2018-09-19T21:43:03.913Z,19.86
2018-09-19T21:45:31.657Z,19.83
2018-09-19T21:47:59.392Z,19.74
2018-09-19T21:50:27.124Z,19.75
2018-09-19T21:52:54.848Z,19.79
2018-09-19T21:55:22.604Z,19.75
2018-09-19T21:57:50.368Z,19.69
2018-09-19T22:00:18.173Z,19.61
2018-09-19T22:02:45.887Z,19.59
2018-09-19T22:05:13.718Z,19.59
2018-09-19T22:07:41.394Z,19.53
2018-09-19T22:10:09.292Z,19.57
2018-09-19T22:12:37.037Z,19.48
2018-09-19T22:15:05.029Z,19.28
2018-09-19T22:17:32.769Z,19.28
2018-09-19T22:20:00.628Z,19.18
2018-09-19T22:22:28.419Z,19.23
2018-09-19T22:24:56.179Z,19.28
2018-09-19T22:27:24.893Z,19.31
2018-09-19T22:29:52.634Z,19.34
2018-09-19T22:32:20.405Z,19.30
2018-09-19T22:34:48.153Z,19.18
2018-09-19T22:37:16.023Z,19.10
2018-09-19T22:39:44.081Z,19.09
2018-09-19T22:42:11.864Z,19.03
2018-09-19T22:44:39.622Z,18.98
2018-09-19T22:47:07.383Z,18.89
2018-09-19T22:49:35.228Z,18.69
2018-09-19T22:52:02.999Z,18.77
2018-09-19T22:54:30.747Z,18.78
2018-09-19T22:56:58.963Z,18.81
2018-09-19T22:59:26.668Z,18.76
2018-09-19T23:01:54.621Z,18.78
2018-09-19T23:04:22.316Z,18.79
2018-09-19T23:06:50.032Z,18.73
2018-09-19T23:09:17.842Z,18.73
2018-09-19T23:11:45.653Z,18.71
2018-09-19T23:14:13.360Z,18.63
2018-09-19T23:16:41.084Z,18.55
2018-09-19T23:19:08.897Z,18.40
2018-09-19T23:21:36.604Z,18.43
2018-09-19T23:24:04.448Z,18.39
2018-09-19T23:26:32.224Z,18.25
2018-09-19T23:28:59.994Z,18.30
2018-09-19T23:31:27.763Z,18.27
2018-09-19T23:33:56.008Z,18.35
2018-09-19T23:36:23.732Z,18.28
2018-09-19T23:38:51.563Z,18.28
2018-09-19T23:41:20.289Z,18.28
2018-09-19T23:43:48.101Z,18.28
2018-09-19T23:46:15.844Z,18.26
2018-09-19T23:48:43.576Z,18.17
2018-09-19T23:51:11.316Z,18.14
2018-09-19T23:53:39.091Z,18.07
2018-09-19T23:56:07.256Z,18.06
2018-09-19T23:58:35.106Z,17.96
